As Victoria — A8SO7 — position and weather

sailwx.info

Track history (hours):
 
Tides and Currents Weather Stations Pressure Air Temp Water Temp Dewpoint Dewpoint Depression Visibility Wind Speed Wind Dir Waves Ship Positions

As Victoria

Last reported at 2017-Jul-12 12:00 UTC. Time now 2017-Aug-19 15:00 UTC.
Position N 34°42' E 122°00'.
Warning: this ship's position is 38 days out of date.

Length 190 m; draft 12.2 m.

MMSI: 636091769.

Wind from 180 at 10 knots

Barometer 1008.3 mb
Air temperature 26.1 ° C
Visibility: greater than 2.2 NM
Dewpoint 23.6 ° C

Date/timePositionNaut miles runAvg speedWind from/ knotsBaromVisibWave heightAir tempDewpointWater temp
2017-Jul-12 12:00N 34°42' E 122°00'14512.1 180 / 101008.3 2.2 26.123.6
2017-Jul-12 00:00N 32°30' E 123°12'4211.6 110 / 81011.1 28.523.0
2017-Jul-11 20:21N 31°48' E 123°14'2112.7
2017-Jul-11 18:40N 31°26' E 123°14'313.3
2017-Jul-11 18:26N 31°23' E 123°14'913.1
2017-Jul-11 17:45N 31°14' E 123°13'313.3
2017-Jul-11 17:30N 31°11' E 123°13'713.1
2017-Jul-11 17:00N 31°04' E 123°14'812.7
2017-Jul-11 16:22N 30°56' E 123°13'5713.1
2017-Jul-11 12:00N 30°00' E 123°00'31012.9 200 / 111010.3 5.4 25.823.3
2017-Jul-10 12:00N 25°18' E 120°36'   210 / 151009.7 5.4 28.825.6
2017-Jul-04 15:56N 01°15' E 104°05'510.1
2017-Jul-04 15:28N 01°16' E 104°01'2 0.2
2017-Jul-04 07:18N 01°17' E 103°60'1 4.6
2017-Jul-04 06:59N 01°16' E 103°59'2 3.6
2017-Jul-04 06:29N 01°15' E 103°58'3 7.0
2017-Jul-04 06:00N 01°13' E 103°55'4 8.0
2017-Jul-04 05:30N 01°11' E 103°51'4 8.1
2017-Jul-04 05:00N 01°09' E 103°48'4 7.8
2017-Jul-04 04:31N 01°07' E 103°45'4 8.2
2017-Jul-04 04:00N 01°04' E 103°42'4 7.3
2017-Jul-04 03:30N 01°03' E 103°38'4 7.8
2017-Jul-04 03:00N 01°05' E 103°35'4 8.2
2017-Jul-04 02:30N 01°07' E 103°31'5 8.1
2017-Jul-04 01:55N 01°10' E 103°27'3 8.2
2017-Jul-04 01:30N 01°12' E 103°24'4 8.4
2017-Jul-04 00:59N 01°14' E 103°21'5911.3
2017-Jul-03 19:48N 01°46' E 102°31'512.1
2017-Jul-03 19:22N 01°48' E 102°26'  
Track history (hours):
 
Tides and Currents Weather Stations Pressure Air Temp Water Temp Dewpoint Dewpoint Depression Visibility Wind Speed Wind Dir Waves Ship Positions

As Victoria

Last reported at 2017-Jul-12 12:00 UTC. Time now 2017-Aug-19 15:00 UTC.
Position N 34°42' E 122°00'.
Warning: this ship's position is 38 days out of date.

Length 190 m; draft 12.2 m.

MMSI: 636091769.

Wind from 180 at 10 knots

Barometer 1008.3 mb
Air temperature 26.1 ° C
Visibility: greater than 2.2 NM
Dewpoint 23.6 ° C

Date/timePositionNaut miles runAvg speedWind from/ knotsBaromVisibWave heightAir tempDewpointWater temp
2017-Jul-12 12:00N 34°42' E 122°00'14512.1 180 / 101008.3 2.2 26.123.6
2017-Jul-12 00:00N 32°30' E 123°12'4211.6 110 / 81011.1 28.523.0
2017-Jul-11 20:21N 31°48' E 123°14'2112.7
2017-Jul-11 18:40N 31°26' E 123°14'313.3
2017-Jul-11 18:26N 31°23' E 123°14'913.1
2017-Jul-11 17:45N 31°14' E 123°13'313.3
2017-Jul-11 17:30N 31°11' E 123°13'713.1
2017-Jul-11 17:00N 31°04' E 123°14'812.7
2017-Jul-11 16:22N 30°56' E 123°13'5713.1
2017-Jul-11 12:00N 30°00' E 123°00'31012.9 200 / 111010.3 5.4 25.823.3
2017-Jul-10 12:00N 25°18' E 120°36'   210 / 151009.7 5.4 28.825.6
2017-Jul-04 15:56N 01°15' E 104°05'510.1
2017-Jul-04 15:28N 01°16' E 104°01'2 0.2
2017-Jul-04 07:18N 01°17' E 103°60'1 4.6
2017-Jul-04 06:59N 01°16' E 103°59'2 3.6
2017-Jul-04 06:29N 01°15' E 103°58'3 7.0
2017-Jul-04 06:00N 01°13' E 103°55'4 8.0
2017-Jul-04 05:30N 01°11' E 103°51'4 8.1
2017-Jul-04 05:00N 01°09' E 103°48'4 7.8
2017-Jul-04 04:31N 01°07' E 103°45'4 8.2
2017-Jul-04 04:00N 01°04' E 103°42'4 7.3
2017-Jul-04 03:30N 01°03' E 103°38'4 7.8
2017-Jul-04 03:00N 01°05' E 103°35'4 8.2
2017-Jul-04 02:30N 01°07' E 103°31'5 8.1
2017-Jul-04 01:55N 01°10' E 103°27'3 8.2
2017-Jul-04 01:30N 01°12' E 103°24'4 8.4
2017-Jul-04 00:59N 01°14' E 103°21'5911.3
2017-Jul-03 19:48N 01°46' E 102°31'512.1
2017-Jul-03 19:22N 01°48' E 102°26'  

Dump ship's entire track history